Time;durP1;ratioP1;P1;durP2;ratioP2;P2;SDS_P1;SDS_P2;PMS_P1;PMS_P2;Temp;Humidity;BMP_temperature;BMP_pressure;BME280_temperature;BME280_humidity;BME280_pressure;Samples;Min_cycle;Max_cycle;Signal;HPM_P1;HPM_P2
2022/01/28 00:00:05;;;;;;;23.50;13.25;;;3.20;99.90;;;;;;5054009;28;19913;-79
2022/01/28 00:02:48;;;;;;;20.90;11.77;;;3.20;99.90;;;;;;5055153;28;20017;-79
2022/01/28 00:05:20;;;;;;;19.90;11.15;;;3.30;99.90;;;;;;5053939;28;20635;-78
2022/01/28 00:07:46;;;;;;;19.00;11.00;;;3.30;99.90;;;;;;5052085;28;20459;-78
2022/01/28 00:10:12;;;;;;;;;;;3.30;99.90;;;;;;5053321;28;20108;-78
2022/01/28 00:13:41;;;;;;;18.80;10.60;;;3.20;99.90;;;;;;5053131;28;20043;-78
2022/01/28 00:15:38;;;;;;;19.50;11.00;;;3.10;99.90;;;;;;5052471;28;20041;-78
2022/01/28 00:39:47;;;;;;;17.58;10.43;;;3.10;99.90;;;;;;5054047;28;20041;-78
2022/01/28 00:42:13;;;;;;;17.17;10.85;;;3.00;99.90;;;;;;5054682;28;20025;-78
2022/01/28 00:44:39;;;;;;;;;;;3.00;99.90;;;;;;5055437;28;20072;-79
2022/01/28 00:47:04;;;;;;;18.40;9.75;;;3.00;99.90;;;;;;5054679;28;19908;-79
2022/01/28 00:49:30;;;;;;;;;;;3.00;99.90;;;;;;5055071;28;20028;-78
2022/01/28 00:51:56;;;;;;;19.30;9.52;;;3.00;99.90;;;;;;5053050;28;20380;-79
2022/01/28 00:54:22;;;;;;;16.48;9.75;;;2.90;99.90;;;;;;5059973;28;20033;-79
2022/01/28 00:56:48;;;;;;;;;;;2.80;99.90;;;;;;5060915;28;20036;-79
2022/01/28 00:59:14;;;;;;;17.58;10.02;;;2.80;99.90;;;;;;5052906;28;20528;-79
2022/01/28 01:01:40;;;;;;;14.70;8.82;;;2.80;99.90;;;;;;5051732;28;20043;-78
2022/01/28 01:04:06;;;;;;;;;;;2.80;99.90;;;;;;5052185;28;20022;-79
2022/01/28 01:06:32;;;;;;;18.67;10.00;;;2.70;99.90;;;;;;5050830;28;19949;-78
2022/01/28 01:08:58;;;;;;;;;;;2.60;99.90;;;;;;5051094;28;20033;-79
2022/01/28 01:11:25;;;;;;;18.45;9.35;;;2.60;99.90;;;;;;5051480;28;19905;-78
2022/01/28 01:13:52;;;;;;;15.48;9.40;;;2.50;99.90;;;;;;5052286;28;20025;-79
2022/01/28 01:16:25;;;;;;;19.67;10.27;;;2.50;99.90;;;;;;5051671;28;20055;-78
2022/01/28 01:19:03;;;;;;;18.55;11.00;;;2.40;99.90;;;;;;5050773;28;20053;-78
2022/01/28 01:21:30;;;;;;;20.48;11.38;;;2.30;99.90;;;;;;5051120;28;20021;-78
2022/01/28 01:23:58;;;;;;;20.92;12.27;;;2.20;99.90;;;;;;5052049;28;20029;-78
2022/01/28 01:26:37;;;;;;;21.23;12.15;;;2.20;99.90;;;;;;5052410;28;20033;-78
2022/01/28 01:29:11;;;;;;;17.70;10.90;;;2.20;99.90;;;;;;5051306;28;20035;-78
2022/01/28 01:31:40;;;;;;;18.95;11.88;;;2.20;99.90;;;;;;5052353;28;20071;-79
2022/01/28 01:36:35;;;;;;;22.95;11.40;;;2.20;99.90;;;;;;5052548;28;20112;-79
2022/01/28 01:39:02;;;;;;;;;;;2.30;99.90;;;;;;5052935;28;20037;-78
2022/01/28 01:41:36;;;;;;;18.75;11.23;;;2.20;99.90;;;;;;5054507;28;19905;-79
2022/01/28 01:44:07;;;;;;;17.95;10.95;;;2.30;99.90;;;;;;5056880;28;20052;-79
2022/01/28 01:52:03;;;;;;;19.27;11.20;;;2.40;99.90;;;;;;5056212;28;20047;-79
2022/01/28 01:54:35;;;;;;;18.63;10.25;;;2.50;99.90;;;;;;5054593;28;20021;-79
2022/01/28 01:57:03;;;;;;;16.52;8.68;;;2.60;99.90;;;;;;5053923;28;20111;-78
2022/01/28 01:59:28;;;;;;;16.25;9.98;;;2.70;99.90;;;;;;5054417;28;20170;-78
2022/01/28 02:01:54;;;;;;;;;;;2.70;99.90;;;;;;5054787;28;20101;-78
2022/01/28 02:04:20;;;;;;;16.38;9.23;;;2.80;99.90;;;;;;5054723;28;19908;-79
2022/01/28 02:06:45;;;;;;;;;;;2.90;99.90;;;;;;5055372;28;20025;-79
2022/01/28 02:09:11;;;;;;;19.10;11.10;;;3.00;99.90;;;;;;5056663;28;19908;-79
2022/01/28 02:11:39;;;;;;;;;;;2.90;99.90;;;;;;5055682;28;20490;-79
2022/01/28 02:14:04;;;;;;;19.02;10.75;;;2.90;99.90;;;;;;5055800;28;19916;-78
2022/01/28 02:16:30;;;;;;;;;;;3.00;99.90;;;;;;5055550;28;20017;-78
2022/01/28 02:18:56;;;;;;;20.95;12.63;;;2.80;99.90;;;;;;5054157;28;20389;-78
2022/01/28 02:21:22;;;;;;;;;;;2.80;99.90;;;;;;5055778;28;20533;-79
2022/01/28 02:23:52;;;;;;;26.23;13.98;;;2.70;99.90;;;;;;5054720;28;19912;-78
2022/01/28 02:26:18;;;;;;;26.45;15.30;;;2.70;99.90;;;;;;5054806;28;20536;-78
2022/01/28 02:28:48;;;;;;;;;;;2.70;99.90;;;;;;5055604;28;20123;-78
2022/01/28 02:31:19;;;;;;;25.70;14.70;;;2.70;99.90;;;;;;5057298;28;19912;-78
2022/01/28 02:33:46;;;;;;;33.00;17.42;;;2.70;99.90;;;;;;5057077;28;20120;-78
2022/01/28 02:36:11;;;;;;;25.45;15.27;;;2.60;99.90;;;;;;5056937;28;20424;-79
2022/01/28 02:38:37;;;;;;;;;;;2.60;99.90;;;;;;5056331;28;20037;-79
2022/01/28 02:41:04;;;;;;;33.20;18.17;;;2.60;99.90;;;;;;5057716;28;19909;-78
2022/01/28 02:43:45;;;;;;;33.50;18.10;;;2.70;99.90;;;;;;5055193;28;20049;-79
2022/01/28 02:46:14;;;;;;;32.15;17.20;;;2.60;99.90;;;;;;5055230;28;20029;-79
2022/01/28 02:48:52;;;;;;;29.38;16.67;;;2.60;99.90;;;;;;5056739;28;20094;-78
2022/01/28 02:51:20;;;;;;;29.15;15.50;;;2.60;99.90;;;;;;5055995;28;20021;-78
2022/01/28 02:53:54;;;;;;;25.83;15.90;;;2.50;99.90;;;;;;5057552;28;20116;-79
2022/01/28 02:58:55;;;;;;;27.08;16.52;;;2.60;99.90;;;;;;5056390;28;20051;-78
2022/01/28 03:01:21;;;;;;;;;;;2.50;99.90;;;;;;5056296;28;20021;-79
2022/01/28 03:03:48;;;;;;;27.73;16.25;;;2.40;99.90;;;;;;5060671;28;19915;-78
2022/01/28 03:06:16;;;;;;;25.65;15.10;;;2.50;99.90;;;;;;5054141;28;20082;-78
2022/01/28 03:08:51;;;;;;;26.38;15.77;;;2.50;99.90;;;;;;5056636;28;20550;-78
2022/01/28 03:19:22;;;;;;;27.70;15.05;;;2.50;99.90;;;;;;5055544;28;20415;-79
2022/01/28 03:21:55;;;;;;;24.50;14.65;;;2.50;99.90;;;;;;5056336;28;20033;-79
2022/01/28 03:24:27;;;;;;;24.17;13.20;;;2.50;99.90;;;;;;5055404;28;20100;-79
2022/01/28 03:27:06;;;;;;;17.40;10.60;;;2.50;99.90;;;;;;5054734;28;20033;-78
2022/01/28 03:29:32;;;;;;;16.23;10.00;;;2.60;99.90;;;;;;5056387;28;20028;-78
2022/01/28 03:31:57;;;;;;;;;;;2.70;99.90;;;;;;5055275;28;20028;-78
2022/01/28 03:34:23;;;;;;;18.67;10.32;;;2.70;99.90;;;;;;5065043;28;19909;-78
2022/01/28 03:36:51;;;;;;;;;;;2.70;99.90;;;;;;5063422;28;20033;-78
2022/01/28 03:39:17;;;;;;;15.95;8.93;;;2.70;99.90;;;;;;5053009;28;19936;-79
2022/01/28 03:41:42;;;;;;;;;;;2.80;99.90;;;;;;5054698;28;20029;-78
2022/01/28 03:44:08;;;;;;;16.17;8.77;;;2.80;99.90;;;;;;5053304;28;19935;-80
2022/01/28 03:46:34;;;;;;;15.70;9.15;;;3.00;99.90;;;;;;5053255;28;20180;-79
2022/01/28 03:49:00;;;;;;;;;;;3.10;99.90;;;;;;5052627;28;20057;-79
2022/01/28 03:51:26;;;;;;;15.63;8.02;;;3.20;99.90;;;;;;5052631;28;20369;-79
2022/01/28 03:53:52;;;;;;;14.75;8.48;;;3.30;99.90;;;;;;5053830;28;20071;-79
2022/01/28 03:56:17;;;;;;;;;;;3.30;99.90;;;;;;5053083;28;20470;-78
2022/01/28 03:58:44;;;;;;;13.25;7.43;;;3.40;99.90;;;;;;5052374;28;19917;-78
2022/01/28 04:01:25;;;;;;;15.70;8.50;;;3.40;99.90;;;;;;5052200;28;20025;-79
2022/01/28 04:11:47;;;;;;;14.23;7.70;;;3.40;99.90;;;;;;5054216;28;20592;-78
2022/01/28 04:14:31;;;;;;;13.23;7.45;;;3.50;99.90;;;;;;5054325;28;20066;-78
2022/01/28 04:19:40;;;;;;;10.88;6.72;;;3.40;99.90;;;;;;5054500;28;20074;-79
2022/01/28 04:22:06;;;;;;;;;;;3.50;99.90;;;;;;5053143;28;20489;-79
2022/01/28 04:24:31;;;;;;;14.88;7.75;;;3.60;99.90;;;;;;5053067;28;20557;-79
2022/01/28 04:26:58;;;;;;;15.75;8.60;;;3.50;99.90;;;;;;5052377;28;20055;-79
2022/01/28 04:29:24;;;;;;;13.00;7.32;;;3.50;99.90;;;;;;5053022;28;20029;-79
2022/01/28 04:31:49;;;;;;;;;;;3.50;99.90;;;;;;5056436;28;20036;-79
2022/01/28 04:34:16;;;;;;;10.85;6.63;;;3.40;99.90;;;;;;5055378;28;20340;-79
2022/01/28 04:37:03;;;;;;;11.23;6.70;;;3.40;99.90;;;;;;5053432;28;20108;-78
2022/01/28 04:42:17;;;;;;;12.07;6.82;;;3.40;99.90;;;;;;5053662;28;20163;-78
2022/01/28 04:45:00;;;;;;;12.30;6.68;;;3.50;99.90;;;;;;5051892;28;20592;-78
2022/01/28 05:05:58;;;;;;;12.35;6.22;;;2.90;99.90;;;;;;5053302;28;20048;-79
2022/01/28 05:16:43;;;;;;;9.68;5.13;;;2.90;99.90;;;;;;5053442;28;20028;-78
2022/01/28 05:27:12;;;;;;;8.38;4.65;;;2.80;99.90;;;;;;5053122;28;20527;-78
2022/01/28 05:29:39;;;;;;;12.15;5.45;;;2.70;99.90;;;;;;5053810;28;20501;-78
2022/01/28 05:32:06;;;;;;;8.75;5.13;;;2.70;99.90;;;;;;5052249;28;20025;-79
2022/01/28 05:34:32;;;;;;;9.48;5.00;;;2.60;99.90;;;;;;5052068;28;20025;-78
2022/01/28 05:36:57;;;;;;;;;;;2.50;99.90;;;;;;5053171;28;20029;-79
2022/01/28 05:39:23;;;;;;;7.43;4.40;;;2.40;99.90;;;;;;5052839;28;19920;-79
2022/01/28 05:41:49;;;;;;;6.03;3.20;;;2.40;99.90;;;;;;5051838;28;20501;-78
2022/01/28 05:44:15;;;;;;;5.43;3.03;;;2.40;99.90;;;;;;5051433;28;20520;-78
2022/01/28 05:46:41;;;;;;;;;;;2.60;99.90;;;;;;5053822;28;20017;-79
2022/01/28 05:49:08;;;;;;;9.15;4.65;;;2.80;99.90;;;;;;5052618;28;19963;-80
2022/01/28 05:51:33;;;;;;;51.80;22.52;;;2.80;99.90;;;;;;5054119;28;20029;-78
2022/01/28 05:53:59;;;;;;;;;;;2.90;99.90;;;;;;5055737;28;20124;-79
2022/01/28 05:56:26;;;;;;;7.88;4.93;;;3.00;99.90;;;;;;5053630;28;19923;-79
2022/01/28 05:58:52;;;;;;;6.82;3.55;;;3.00;99.90;;;;;;5054949;28;20117;-78
2022/01/28 06:01:18;;;;;;;7.35;3.83;;;3.10;99.90;;;;;;5057190;28;20033;-79
2022/01/28 06:03:44;;;;;;;;;;;3.20;99.90;;;;;;5058157;28;20094;-79
2022/01/28 06:06:18;;;;;;;6.93;3.10;;;3.20;99.90;;;;;;5053125;28;19973;-79
2022/01/28 06:08:48;;;;;;;5.05;3.08;;;3.20;99.90;;;;;;5053752;28;20059;-78
2022/01/28 06:11:14;;;;;;;6.22;3.28;;;3.20;99.90;;;;;;5053825;28;20025;-77
2022/01/28 06:13:40;;;;;;;;;;;3.20;99.90;;;;;;5058005;28;20032;-78
2022/01/28 06:16:06;;;;;;;6.25;3.08;;;3.20;99.90;;;;;;5055256;28;19905;-79
2022/01/28 06:18:31;;;;;;;;;;;3.20;99.90;;;;;;5049208;28;20402;-78
2022/01/28 06:20:57;;;;;;;5.00;2.17;;;3.20;99.90;;;;;;5049473;28;19912;-78
2022/01/28 06:23:22;;;;;;;5.90;2.90;;;3.30;99.90;;;;;;5050678;28;20468;-79
2022/01/28 06:25:49;;;;;;;;;;;3.30;99.90;;;;;;5050064;28;20474;-79
2022/01/28 06:28:14;;;;;;;6.57;2.72;;;3.30;99.90;;;;;;5053396;28;19912;-79
2022/01/28 06:30:40;;;;;;;;;;;3.30;99.90;;;;;;5053240;28;20033;-78
2022/01/28 06:33:05;;;;;;;8.98;4.40;;;3.60;99.90;;;;;;5053982;28;20534;-77
2022/01/28 06:35:31;;;;;;;9.32;3.78;;;3.50;99.90;;;;;;5051993;28;20029;-77
2022/01/28 06:37:57;;;;;;;;;;;3.50;99.90;;;;;;5053627;28;20025;-77
2022/01/28 06:40:22;;;;;;;12.02;3.65;;;3.50;99.90;;;;;;5053709;28;19966;-78
2022/01/28 06:42:48;;;;;;;5.68;2.58;;;3.40;99.90;;;;;;5056549;28;20486;-78
2022/01/28 06:45:14;;;;;;;8.43;3.30;;;3.50;99.90;;;;;;5055966;28;20033;-79
2022/01/28 06:47:40;;;;;;;;;;;3.40;99.90;;;;;;5056372;28;20485;-79
2022/01/28 06:50:08;;;;;;;3.92;2.35;;;3.40;99.90;;;;;;5057196;28;19916;-79
2022/01/28 06:52:34;;;;;;;7.28;2.85;;;3.30;99.90;;;;;;5057405;28;20029;-79
2022/01/28 06:55:01;;;;;;;6.07;2.65;;;3.50;99.90;;;;;;5056597;28;20060;-78
2022/01/28 06:57:28;;;;;;;5.43;2.58;;;3.80;99.90;;;;;;5056520;28;20492;-79
2022/01/28 06:59:54;;;;;;;4.80;2.58;;;4.20;99.90;;;;;;5053694;28;20044;-79
2022/01/28 07:02:20;;;;;;;;;;;4.60;99.90;;;;;;5056256;28;20032;-78
2022/01/28 07:04:45;;;;;;;5.38;2.80;;;5.00;99.90;;;;;;5054783;28;19905;-78
2022/01/28 07:07:11;;;;;;;3.90;2.05;;;5.60;99.90;;;;;;5055691;28;20481;-79
2022/01/28 07:09:37;;;;;;;;;;;5.90;99.90;;;;;;5058532;28;20033;-80
2022/01/28 07:12:03;;;;;;;4.00;2.00;;;6.50;99.90;;;;;;5056603;28;19962;-79
2022/01/28 07:14:29;;;;;;;3.95;1.98;;;6.90;99.90;;;;;;5052906;28;20048;-78
2022/01/28 07:16:55;;;;;;;2.88;1.77;;;7.20;99.90;;;;;;5052309;28;20021;-77
2022/01/28 07:19:20;;;;;;;5.45;1.90;;;7.40;99.90;;;;;;5052106;28;20116;-77
2022/01/28 07:21:46;;;;;;;;;;;7.70;99.90;;;;;;5053984;28;20059;-77
2022/01/28 07:24:11;;;;;;;2.80;1.55;;;8.10;98.30;;;;;;5053750;28;20281;-78
2022/01/28 07:26:37;;;;;;;;;;;8.10;99.10;;;;;;5052904;28;20059;-77
2022/01/28 07:29:03;;;;;;;5.15;2.33;;;8.20;98.50;;;;;;5051399;28;19919;-77
2022/01/28 07:31:28;;;;;;;3.03;2.13;;;8.10;98.40;;;;;;5054235;28;20087;-77
2022/01/28 07:33:54;;;;;;;;;;;8.10;97.80;;;;;;5061647;28;20426;-79
2022/01/28 07:36:19;;;;;;;3.50;2.08;;;8.00;98.90;;;;;;5054676;28;19927;-78
2022/01/28 07:38:45;;;;;;;3.05;2.00;;;8.00;99.20;;;;;;5055194;28;20331;-78
2022/01/28 07:41:11;;;;;;;;;;;7.90;99.90;;;;;;5055277;28;20040;-79
2022/01/28 07:43:39;;;;;;;50.88;21.40;;;8.10;98.80;;;;;;5055287;28;19909;-79
2022/01/28 07:46:05;;;;;;;57.75;26.60;;;8.20;97.50;;;;;;5056414;28;20419;-79
2022/01/28 07:48:31;;;;;;;;;;;8.20;97.80;;;;;;5055543;28;20100;-78
2022/01/28 07:50:57;;;;;;;15.27;8.43;;;8.00;97.20;;;;;;5052968;28;20399;-78
2022/01/28 07:53:23;;;;;;;11.55;6.28;;;7.80;98.60;;;;;;5052499;28;20036;-78
2022/01/28 07:55:49;;;;;;;7.95;4.60;;;7.60;99.00;;;;;;5053768;28;20033;-78
2022/01/28 07:58:14;;;;;;;;;;;7.50;99.90;;;;;;5053249;28;20025;-78
2022/01/28 08:00:42;;;;;;;11.85;6.45;;;7.40;99.90;;;;;;5052432;28;19917;-78
2022/01/28 08:03:07;;;;;;;7.68;4.80;;;7.60;99.90;;;;;;5054004;28;20021;-79
2022/01/28 08:05:33;;;;;;;6.53;2.78;;;7.40;99.90;;;;;;5053078;28;20109;-78
2022/01/28 08:08:04;;;;;;;;;;;7.30;99.90;;;;;;5054880;28;20515;-79
2022/01/28 08:10:29;;;;;;;5.80;3.47;;;7.00;99.90;;;;;;5054389;28;19912;-78
2022/01/28 08:12:55;;;;;;;5.88;2.85;;;7.00;99.90;;;;;;5052653;28;20428;-79
2022/01/28 08:15:21;;;;;;;;;;;7.20;99.90;;;;;;5053793;28;20025;-80
2022/01/28 08:17:47;;;;;;;3.03;1.40;;;7.30;99.50;;;;;;5053859;28;20381;-78
2022/01/28 08:20:13;;;;;;;1.70;1.17;;;7.40;99.80;;;;;;5053698;28;20052;-79
2022/01/28 08:22:45;;;;;;;2.65;1.20;;;7.60;98.30;;;;;;5055462;28;20025;-78
2022/01/28 08:25:10;;;;;;;2.47;0.93;;;7.80;96.90;;;;;;5054247;28;20496;-79
2022/01/28 08:27:36;;;;;;;2.65;1.00;;;7.70;95.20;;;;;;5053243;28;20075;-78
2022/01/28 08:30:02;;;;;;;3.45;1.20;;;7.30;97.60;;;;;;5052769;28;20452;-78
2022/01/28 08:32:27;;;;;;;1.83;0.80;;;7.20;99.70;;;;;;5055533;28;20044;-78
2022/01/28 08:34:54;;;;;;;2.05;0.80;;;7.30;99.00;;;;;;5054221;28;20481;-78
2022/01/28 08:37:19;;;;;;;;;;;7.60;98.00;;;;;;5056814;28;20025;-78
2022/01/28 08:39:45;;;;;;;2.80;1.05;;;8.00;95.60;;;;;;5054451;28;19916;-79
2022/01/28 08:42:10;;;;;;;;;;;8.40;93.00;;;;;;5050607;28;20125;-78
2022/01/28 08:44:36;;;;;;;3.80;0.90;;;8.70;89.80;;;;;;5050345;28;19905;-78
2022/01/28 08:47:02;;;;;;;;;;;9.10;84.00;;;;;;5050806;28;20033;-77
2022/01/28 08:49:27;;;;;;;2.88;0.90;;;9.40;77.30;;;;;;5050341;28;19916;-78
2022/01/28 08:51:53;;;;;;;6.20;0.88;;;9.50;75.50;;;;;;5049881;28;20025;-77
2022/01/28 08:54:18;;;;;;;;;;;9.50;75.30;;;;;;5048908;28;20037;-77
2022/01/28 08:56:45;;;;;;;2.22;0.60;;;9.70;70.60;;;;;;5048909;28;19948;-77
2022/01/28 08:59:11;;;;;;;6.53;0.70;;;9.80;69.70;;;;;;5050511;28;20041;-76
2022/01/28 09:01:36;;;;;;;;;;;9.80;69.60;;;;;;5053280;28;20033;-78
2022/01/28 09:04:02;;;;;;;2.97;0.70;;;9.60;69.90;;;;;;5052824;28;19916;-78
2022/01/28 09:06:28;;;;;;;;;;;9.40;70.70;;;;;;5051966;28;20017;-77
2022/01/28 09:08:56;;;;;;;3.53;0.60;;;9.30;70.40;;;;;;5048121;28;20388;-77
2022/01/28 09:13:47;;;;;;;;;;;9.30;72.30;;;;;;5049773;28;20053;-77
2022/01/28 09:16:13;;;;;;;3.42;0.70;;;9.40;70.90;;;;;;5048699;28;19995;-78
2022/01/28 09:18:39;;;;;;;;;;;9.40;71.10;;;;;;5047895;28;20379;-77
2022/01/28 09:21:04;;;;;;;5.53;0.60;;;9.60;67.90;;;;;;5049412;28;19909;-78
2022/01/28 09:23:30;;;;;;;;;;;9.50;67.10;;;;;;5050117;28;20032;-78
2022/01/28 09:25:56;;;;;;;2.10;0.60;;;9.30;68.20;;;;;;5050934;28;19909;-80
2022/01/28 09:28:21;;;;;;;;;;;9.00;69.40;;;;;;5052718;28;20096;-78
2022/01/28 09:30:47;;;;;;;1.95;0.52;;;8.70;70.30;;;;;;5053038;28;19999;-78
2022/01/28 09:33:13;;;;;;;1.65;0.57;;;8.50;72.50;;;;;;5052182;28;20043;-78
2022/01/28 09:35:41;;;;;;;1.58;0.57;;;8.10;76.40;;;;;;5052033;28;20029;-79
2022/01/28 09:38:07;;;;;;;1.27;0.50;;;8.10;79.30;;;;;;5052373;28;20033;-78
2022/01/28 09:40:33;;;;;;;2.53;0.55;;;8.00;77.40;;;;;;5053296;28;20037;-79
2022/01/28 09:43:00;;;;;;;;;;;8.10;74.60;;;;;;5052149;28;20023;-78
2022/01/28 09:45:26;;;;;;;1.75;0.50;;;7.90;76.70;;;;;;5052045;28;19912;-78
2022/01/28 09:47:53;;;;;;;;;;;8.10;75.20;;;;;;5052000;28;20116;-77
2022/01/28 09:50:22;;;;;;;2.22;0.82;;;8.00;74.40;;;;;;5050484;28;20031;-78
2022/01/28 09:52:52;;;;;;;3.35;0.80;;;8.10;75.00;;;;;;5050473;28;20037;-78
2022/01/28 09:55:19;;;;;;;4.07;1.40;;;8.00;74.60;;;;;;5050093;28;20033;-78
2022/01/28 09:57:49;;;;;;;3.15;0.60;;;7.90;76.90;;;;;;5050241;28;20057;-78
2022/01/28 10:00:16;;;;;;;3.78;0.90;;;8.00;76.40;;;;;;5051535;28;20039;-77
2022/01/28 10:02:51;;;;;;;;;;;8.10;76.00;;;;;;5056414;28;20040;-78
2022/01/28 10:05:20;;;;;;;2.80;0.80;;;8.10;73.40;;;;;;5054822;28;19916;-77
2022/01/28 10:08:23;;;;;;;5.32;0.60;;;8.10;72.20;;;;;;5056041;28;20025;-77
2022/01/28 10:11:08;;;;;;;7.25;0.60;;;8.10;72.60;;;;;;5055083;28;20505;-77
2022/01/28 10:13:44;;;;;;;4.70;0.90;;;8.10;70.20;;;;;;5055754;28;20028;-78
2022/01/28 10:16:14;;;;;;;2.15;0.50;;;8.20;69.90;;;;;;5054747;28;20029;-78
2022/01/28 10:18:56;;;;;;;1.90;0.40;;;8.30;68.90;;;;;;5057199;28;20202;-78
2022/01/28 10:21:21;;;;;;;6.38;0.80;;;8.30;67.70;;;;;;5055305;28;20040;-77
2022/01/28 10:24:09;;;;;;;1.95;0.55;;;8.40;68.00;;;;;;5056800;28;20025;-78
2022/01/28 10:26:53;;;;;;;14.55;5.32;;;8.60;67.00;;;;;;5054687;28;20400;-78
2022/01/28 10:29:27;;;;;;;23.70;7.60;;;8.70;64.90;;;;;;5054372;28;20035;-77
2022/01/28 10:31:59;;;;;;;15.55;6.25;;;8.80;64.00;;;;;;5050800;28;20393;-77
2022/01/28 10:34:26;;;;;;;5.07;1.50;;;8.90;63.30;;;;;;5057989;28;20084;-77
2022/01/28 10:37:21;;;;;;;9.48;3.92;;;9.00;62.70;;;;;;5056950;28;20025;-77
2022/01/28 10:39:57;;;;;;;1.65;0.60;;;8.90;63.30;;;;;;5054615;28;20041;-76
2022/01/28 10:42:28;;;;;;;1.60;0.70;;;9.20;61.10;;;;;;5053003;28;20025;-77
2022/01/28 10:45:09;;;;;;;3.53;0.85;;;9.20;60.80;;;;;;5053452;28;20091;-77
2022/01/28 10:47:45;;;;;;;4.28;1.95;;;9.30;59.50;;;;;;5053302;28;20103;-77
2022/01/28 10:50:27;;;;;;;7.32;1.08;;;9.40;59.40;;;;;;5053215;28;20501;-77
2022/01/28 10:53:13;;;;;;;3.28;0.60;;;9.50;58.00;;;;;;5053340;28;20033;-77
2022/01/28 10:55:41;;;;;;;6.20;0.50;;;9.50;57.80;;;;;;5052880;28;20025;-78
2022/01/28 10:58:09;;;;;;;3.60;0.70;;;9.60;58.00;;;;;;5054150;28;20059;-77
2022/01/28 11:00:37;;;;;;;3.05;0.40;;;9.60;57.90;;;;;;5054709;28;20037;-78
2022/01/28 11:03:05;;;;;;;9.65;0.52;;;9.50;58.60;;;;;;5055751;28;20448;-78
2022/01/28 11:05:32;;;;;;;2.17;0.47;;;9.70;58.80;;;;;;5053877;28;20029;-77
2022/01/28 11:08:00;;;;;;;2.63;0.50;;;9.90;56.20;;;;;;5054692;28;20048;-78
2022/01/28 11:10:26;;;;;;;2.13;0.52;;;10.00;54.90;;;;;;5054262;28;20029;-77
2022/01/28 11:12:52;;;;;;;;;;;10.00;54.70;;;;;;5054844;28;20021;-77
2022/01/28 11:15:18;;;;;;;1.75;0.50;;;9.90;55.20;;;;;;5055327;28;20011;-78
2022/01/28 11:17:43;;;;;;;;;;;10.00;54.70;;;;;;5054913;28;20115;-78
2022/01/28 11:20:11;;;;;;;2.67;0.70;;;10.20;53.80;;;;;;5054040;28;19920;-78
2022/01/28 11:23:04;;;;;;;6.15;0.40;;;10.20;52.60;;;;;;5055968;28;20041;-77
2022/01/28 11:25:36;;;;;;;2.70;0.40;;;10.00;52.90;;;;;;5052887;28;20025;-77
2022/01/28 11:28:10;;;;;;;5.30;0.70;;;9.80;53.50;;;;;;5051951;28;20029;-77
2022/01/28 11:30:43;;;;;;;3.95;0.93;;;9.60;54.10;;;;;;5054527;28;20033;-78
2022/01/28 11:33:10;;;;;;;2.33;0.60;;;9.50;54.10;;;;;;5055982;28;20039;-77
2022/01/28 11:35:41;;;;;;;1.98;0.50;;;9.50;55.20;;;;;;5055602;28;20047;-78
2022/01/28 11:38:26;;;;;;;1.67;0.60;;;9.50;55.60;;;;;;5053709;28;20075;-78
2022/01/28 11:41:19;;;;;;;5.85;1.40;;;9.50;55.50;;;;;;5057828;28;20037;-78
2022/01/28 11:43:52;;;;;;;2.03;0.50;;;9.30;55.60;;;;;;5059306;28;20063;-77
2022/01/28 11:46:23;;;;;;;6.60;1.52;;;9.40;55.70;;;;;;5059121;28;20055;-77
2022/01/28 11:48:51;;;;;;;0.82;0.40;;;9.20;55.30;;;;;;5053544;28;20020;-77
2022/01/28 11:51:20;;;;;;;2.42;0.77;;;9.30;55.50;;;;;;5054691;28;20068;-78
2022/01/28 11:54:00;;;;;;;1.55;0.50;;;9.20;55.40;;;;;;5057910;28;20021;-79
2022/01/28 11:56:28;;;;;;;2.33;0.60;;;9.20;56.10;;;;;;5058087;28;20501;-79
2022/01/28 11:58:58;;;;;;;6.60;0.80;;;9.20;55.50;;;;;;5056310;28;20051;-78
2022/01/28 12:01:36;;;;;;;2.20;0.52;;;9.20;55.50;;;;;;5055538;28;20068;-78
2022/01/28 12:04:23;;;;;;;3.50;0.60;;;9.20;55.40;;;;;;5057035;28;20040;-77
2022/01/28 12:07:00;;;;;;;2.80;0.70;;;9.00;56.50;;;;;;5055631;28;20041;-77
2022/01/28 12:09:26;;;;;;;;;;;9.10;57.00;;;;;;5052002;28;20025;-78
2022/01/28 12:11:51;;;;;;;2.80;0.50;;;9.20;56.20;;;;;;5051139;28;19909;-77
2022/01/28 12:14:18;;;;;;;4.05;0.50;;;9.20;56.70;;;;;;5050398;28;20036;-77
2022/01/28 12:16:48;;;;;;;2.90;0.40;;;9.30;56.10;;;;;;5050468;28;20025;-77
2022/01/28 12:19:22;;;;;;;4.55;0.55;;;9.30;56.40;;;;;;5052845;28;20084;-78
2022/01/28 12:22:10;;;;;;;1.83;0.47;;;9.20;56.60;;;;;;5052316;28;20032;-76
2022/01/28 12:24:37;;;;;;;5.88;1.73;;;9.10;56.50;;;;;;5050460;28;20033;-77
2022/01/28 12:27:09;;;;;;;3.10;0.65;;;8.80;57.70;;;;;;5050859;28;20037;-77
2022/01/28 12:29:36;;;;;;;2.85;0.77;;;8.80;59.00;;;;;;5050818;28;20100;-77
2022/01/28 12:32:04;;;;;;;3.15;0.98;;;8.70;59.20;;;;;;5049279;28;20025;-77
2022/01/28 12:34:29;;;;;;;1.80;0.50;;;8.50;59.50;;;;;;5051805;28;20028;-77
2022/01/28 12:36:59;;;;;;;3.75;1.38;;;8.30;60.80;;;;;;5051691;28;20397;-78
2022/01/28 12:39:51;;;;;;;2.88;0.77;;;8.20;61.50;;;;;;5051107;28;20123;-77
2022/01/28 12:42:25;;;;;;;4.80;1.23;;;8.20;61.90;;;;;;5051345;28;20041;-77
2022/01/28 12:44:58;;;;;;;4.22;0.80;;;8.00;62.90;;;;;;5049127;28;20028;-76
2022/01/28 12:47:25;;;;;;;4.13;1.10;;;8.00;63.70;;;;;;5050180;28;20499;-76
2022/01/28 12:50:03;;;;;;;2.97;0.80;;;7.90;65.00;;;;;;5051038;28;20040;-76
2022/01/28 12:52:34;;;;;;;6.20;0.75;;;7.90;65.40;;;;;;5049610;28;20032;-77
2022/01/28 12:55:00;;;;;;;4.10;1.73;;;7.80;66.40;;;;;;5049436;28;20020;-76
2022/01/28 12:57:25;;;;;;;1.73;0.40;;;7.80;66.10;;;;;;5049956;28;20391;-76
2022/01/28 12:59:51;;;;;;;;;;;7.80;65.80;;;;;;5050956;28;20128;-76
2022/01/28 13:02:18;;;;;;;3.00;0.60;;;7.70;66.70;;;;;;5051075;28;19940;-76
2022/01/28 13:09:55;;;;;;;4.00;0.65;;;7.50;69.80;;;;;;5049440;28;20763;-75
2022/01/28 13:12:39;;;;;;;3.40;0.88;;;7.50;69.70;;;;;;5046357;28;20033;-76
2022/01/28 13:15:11;;;;;;;3.45;0.98;;;7.40;69.70;;;;;;5050423;28;20088;-79
2022/01/28 13:17:37;;;;;;;3.45;0.93;;;7.30;71.00;;;;;;5053028;28;20032;-78
2022/01/28 13:20:11;;;;;;;3.05;0.40;;;7.30;72.00;;;;;;5051065;28;20052;-77
2022/01/28 13:22:38;;;;;;;0.95;0.47;;;7.30;71.10;;;;;;5052577;28;20486;-78
2022/01/28 13:25:22;;;;;;;1.42;0.40;;;7.40;71.30;;;;;;5051178;28;20036;-77
2022/01/28 13:27:54;;;;;;;5.97;0.80;;;7.50;70.30;;;;;;5053639;28;20029;-78
2022/01/28 13:30:20;;;;;;;5.57;1.00;;;7.50;71.40;;;;;;5052619;28;20065;-78
2022/01/28 13:32:47;;;;;;;;;;;7.40;72.10;;;;;;5057735;28;20079;-77
2022/01/28 13:35:16;;;;;;;23.88;12.30;;;7.30;73.40;;;;;;5058888;28;19911;-77
2022/01/28 13:37:46;;;;;;;17.52;9.63;;;7.30;72.20;;;;;;5055276;28;20033;-77
2022/01/28 13:40:18;;;;;;;4.63;1.33;;;7.30;71.90;;;;;;5054303;28;20099;-77
2022/01/28 13:43:04;;;;;;;5.43;0.70;;;7.30;71.60;;;;;;5053965;28;20027;-76
2022/01/28 13:45:37;;;;;;;1.70;0.50;;;7.50;70.70;;;;;;5055580;28;20052;-78
2022/01/28 13:48:05;;;;;;;2.47;0.65;;;7.30;71.00;;;;;;5060769;28;20017;-77
2022/01/28 13:50:37;;;;;;;3.53;0.77;;;7.20;72.40;;;;;;5061237;28;20024;-78
2022/01/28 13:55:47;;;;;;;3.83;0.93;;;7.30;72.30;;;;;;5055938;28;20025;-75
2022/01/28 13:58:13;;;;;;;3.67;0.50;;;7.30;71.50;;;;;;5054884;28;20488;-77
2022/01/28 14:00:50;;;;;;;5.13;2.47;;;7.30;71.90;;;;;;5054819;28;20033;-78
2022/01/28 14:03:16;;;;;;;4.78;1.45;;;7.30;70.90;;;;;;5055110;28;20530;-77
2022/01/28 14:05:56;;;;;;;4.15;0.80;;;7.30;72.20;;;;;;5054297;28;20039;-78
2022/01/28 14:09:04;;;;;;;5.20;0.63;;;7.50;72.10;;;;;;5053800;28;20060;-77
2022/01/28 14:11:43;;;;;;;6.40;1.00;;;7.60;70.70;;;;;;5051563;28;20040;-76
2022/01/28 14:14:40;;;;;;;1.60;0.60;;;7.70;68.50;;;;;;5054525;28;20124;-78
2022/01/28 14:17:08;;;;;;;1.85;0.70;;;7.60;68.90;;;;;;5054607;28;20057;-78
2022/01/28 14:19:39;;;;;;;5.05;0.80;;;7.70;68.60;;;;;;5054328;28;20513;-77
2022/01/28 14:22:08;;;;;;;4.15;0.90;;;7.50;70.30;;;;;;5059370;28;20040;-78
2022/01/28 14:24:36;;;;;;;4.30;0.60;;;7.40;71.50;;;;;;5057861;28;20497;-77
2022/01/28 14:32:06;;;;;;;3.58;0.70;;;7.10;73.40;;;;;;5055110;28;20021;-78
2022/01/28 14:34:32;;;;;;;2.83;0.70;;;7.10;74.00;;;;;;5054988;28;20033;-78
2022/01/28 14:36:58;;;;;;;6.30;2.03;;;7.00;75.20;;;;;;5053183;28;20383;-78
2022/01/28 14:39:24;;;;;;;5.38;0.90;;;6.90;76.00;;;;;;5053622;28;20045;-77
2022/01/28 14:41:51;;;;;;;7.43;2.00;;;6.80;78.10;;;;;;5054578;28;20054;-78
2022/01/28 14:44:17;;;;;;;7.97;2.28;;;6.50;80.00;;;;;;5053792;28;20090;-78
2022/01/28 14:46:43;;;;;;;6.20;1.60;;;6.60;79.80;;;;;;5054460;28;20025;-78
2022/01/28 14:49:09;;;;;;;4.75;1.20;;;6.50;81.00;;;;;;5053939;28;20024;-77
2022/01/28 14:51:37;;;;;;;4.18;1.10;;;6.50;83.60;;;;;;5053246;28;20037;-78
2022/01/28 14:54:04;;;;;;;5.70;2.03;;;6.50;83.10;;;;;;5053858;28;20044;-78
2022/01/28 14:56:30;;;;;;;4.03;0.98;;;6.40;83.80;;;;;;5053380;28;20032;-78
2022/01/28 14:58:57;;;;;;;;;;;6.40;85.60;;;;;;5053859;28;20071;-78
2022/01/28 15:01:24;;;;;;;9.30;2.88;;;6.30;85.00;;;;;;5057198;28;19995;-77